sensor_id;sensor_type;location;lat;lon;timestamp;P1;durP1;ratioP1;P2;durP2;ratioP2
2211;SDS011;48849;48.758;9.158;2023-05-20T00:00:43;5.93;;;4.80;;
2211;SDS011;48849;48.758;9.158;2023-05-20T00:03:12;6.15;;;4.57;;
2211;SDS011;48849;48.758;9.158;2023-05-20T00:05:40;6.43;;;4.90;;
2211;SDS011;48849;48.758;9.158;2023-05-20T00:08:07;5.65;;;4.80;;
2211;SDS011;48849;48.758;9.158;2023-05-20T00:10:35;4.82;;;4.43;;
2211;SDS011;48849;48.758;9.158;2023-05-20T00:13:01;5.45;;;4.88;;
2211;SDS011;48849;48.758;9.158;2023-05-20T00:15:28;5.53;;;4.57;;
2211;SDS011;48849;48.758;9.158;2023-05-20T00:17:56;5.15;;;4.65;;
2211;SDS011;48849;48.758;9.158;2023-05-20T00:20:22;6.80;;;5.00;;
2211;SDS011;48849;48.758;9.158;2023-05-20T00:22:50;5.35;;;4.63;;
2211;SDS011;48849;48.758;9.158;2023-05-20T00:25:17;5.32;;;4.82;;
2211;SDS011;48849;48.758;9.158;2023-05-20T00:27:44;5.65;;;4.90;;
2211;SDS011;48849;48.758;9.158;2023-05-20T00:30:11;8.88;;;4.95;;
2211;SDS011;48849;48.758;9.158;2023-05-20T00:32:38;6.13;;;4.80;;
2211;SDS011;48849;48.758;9.158;2023-05-20T00:35:05;5.45;;;4.85;;
2211;SDS011;48849;48.758;9.158;2023-05-20T00:37:33;5.22;;;4.72;;
2211;SDS011;48849;48.758;9.158;2023-05-20T00:40:01;8.32;;;5.50;;
2211;SDS011;48849;48.758;9.158;2023-05-20T00:42:28;5.88;;;4.25;;
2211;SDS011;48849;48.758;9.158;2023-05-20T00:44:54;9.40;;;4.72;;
2211;SDS011;48849;48.758;9.158;2023-05-20T00:47:22;5.05;;;4.50;;
2211;SDS011;48849;48.758;9.158;2023-05-20T00:49:52;7.85;;;5.30;;
2211;SDS011;48849;48.758;9.158;2023-05-20T00:52:18;7.60;;;4.88;;
2211;SDS011;48849;48.758;9.158;2023-05-20T00:54:46;5.05;;;4.55;;
2211;SDS011;48849;48.758;9.158;2023-05-20T00:57:15;5.45;;;4.80;;
2211;SDS011;48849;48.758;9.158;2023-05-20T00:59:42;6.70;;;5.35;;
2211;SDS011;48849;48.758;9.158;2023-05-20T01:02:09;4.32;;;3.92;;
2211;SDS011;48849;48.758;9.158;2023-05-20T01:04:36;5.43;;;4.45;;
2211;SDS011;48849;48.758;9.158;2023-05-20T01:07:03;6.28;;;4.50;;
2211;SDS011;48849;48.758;9.158;2023-05-20T01:09:31;5.10;;;4.70;;
2211;SDS011;48849;48.758;9.158;2023-05-20T01:12:02;5.93;;;4.60;;
2211;SDS011;48849;48.758;9.158;2023-05-20T01:14:35;5.25;;;4.72;;
2211;SDS011;48849;48.758;9.158;2023-05-20T01:17:05;5.30;;;4.80;;
2211;SDS011;48849;48.758;9.158;2023-05-20T01:19:37;10.23;;;5.45;;
2211;SDS011;48849;48.758;9.158;2023-05-20T01:22:08;5.95;;;5.20;;
2211;SDS011;48849;48.758;9.158;2023-05-20T01:24:37;5.72;;;5.13;;
2211;SDS011;48849;48.758;9.158;2023-05-20T01:27:05;6.55;;;4.63;;
2211;SDS011;48849;48.758;9.158;2023-05-20T01:29:37;10.75;;;5.38;;
2211;SDS011;48849;48.758;9.158;2023-05-20T01:32:05;5.95;;;5.05;;
2211;SDS011;48849;48.758;9.158;2023-05-20T01:34:36;5.55;;;5.00;;
2211;SDS011;48849;48.758;9.158;2023-05-20T01:37:04;6.38;;;5.65;;
2211;SDS011;48849;48.758;9.158;2023-05-20T01:39:32;7.97;;;5.50;;
2211;SDS011;48849;48.758;9.158;2023-05-20T01:42:02;6.75;;;5.22;;
2211;SDS011;48849;48.758;9.158;2023-05-20T01:44:30;7.28;;;6.03;;
2211;SDS011;48849;48.758;9.158;2023-05-20T01:46:58;7.30;;;5.70;;
2211;SDS011;48849;48.758;9.158;2023-05-20T01:49:25;7.63;;;5.80;;
2211;SDS011;48849;48.758;9.158;2023-05-20T01:51:52;6.55;;;5.93;;
2211;SDS011;48849;48.758;9.158;2023-05-20T01:54:19;6.68;;;6.03;;
2211;SDS011;48849;48.758;9.158;2023-05-20T01:56:46;6.60;;;5.50;;
2211;SDS011;48849;48.758;9.158;2023-05-20T01:59:14;7.00;;;6.15;;
2211;SDS011;48849;48.758;9.158;2023-05-20T02:01:41;6.43;;;5.03;;
2211;SDS011;48849;48.758;9.158;2023-05-20T02:04:08;6.80;;;5.55;;
2211;SDS011;48849;48.758;9.158;2023-05-20T02:06:34;8.57;;;5.95;;
2211;SDS011;48849;48.758;9.158;2023-05-20T02:09:01;5.43;;;4.93;;
2211;SDS011;48849;48.758;9.158;2023-05-20T02:11:28;6.82;;;4.70;;
2211;SDS011;48849;48.758;9.158;2023-05-20T02:13:54;5.57;;;5.07;;
2211;SDS011;48849;48.758;9.158;2023-05-20T02:16:22;5.88;;;5.38;;
2211;SDS011;48849;48.758;9.158;2023-05-20T02:18:49;5.90;;;5.30;;
2211;SDS011;48849;48.758;9.158;2023-05-20T02:21:17;5.70;;;5.20;;
2211;SDS011;48849;48.758;9.158;2023-05-20T02:23:44;6.70;;;5.45;;
2211;SDS011;48849;48.758;9.158;2023-05-20T02:26:10;6.85;;;6.15;;
2211;SDS011;48849;48.758;9.158;2023-05-20T02:28:37;5.78;;;5.28;;
2211;SDS011;48849;48.758;9.158;2023-05-20T02:31:07;6.28;;;5.65;;
2211;SDS011;48849;48.758;9.158;2023-05-20T02:33:35;6.60;;;5.30;;
2211;SDS011;48849;48.758;9.158;2023-05-20T02:36:02;6.28;;;5.50;;
2211;SDS011;48849;48.758;9.158;2023-05-20T02:38:29;5.95;;;5.35;;
2211;SDS011;48849;48.758;9.158;2023-05-20T02:40:56;6.18;;;5.45;;
2211;SDS011;48849;48.758;9.158;2023-05-20T02:43:23;6.03;;;5.00;;
2211;SDS011;48849;48.758;9.158;2023-05-20T02:45:50;7.05;;;5.40;;
2211;SDS011;48849;48.758;9.158;2023-05-20T02:48:17;5.82;;;5.15;;
2211;SDS011;48849;48.758;9.158;2023-05-20T02:50:45;6.00;;;5.47;;
2211;SDS011;48849;48.758;9.158;2023-05-20T02:53:12;6.07;;;5.50;;
2211;SDS011;48849;48.758;9.158;2023-05-20T02:55:39;9.05;;;6.60;;
2211;SDS011;48849;48.758;9.158;2023-05-20T02:58:05;6.50;;;5.60;;
2211;SDS011;48849;48.758;9.158;2023-05-20T03:00:32;5.50;;;5.10;;
2211;SDS011;48849;48.758;9.158;2023-05-20T03:03:04;7.45;;;5.95;;
2211;SDS011;48849;48.758;9.158;2023-05-20T03:05:31;6.55;;;5.95;;
2211;SDS011;48849;48.758;9.158;2023-05-20T03:08:05;6.10;;;5.45;;
2211;SDS011;48849;48.758;9.158;2023-05-20T03:10:34;6.80;;;5.80;;
2211;SDS011;48849;48.758;9.158;2023-05-20T03:13:01;6.53;;;5.38;;
2211;SDS011;48849;48.758;9.158;2023-05-20T03:15:32;7.88;;;6.00;;
2211;SDS011;48849;48.758;9.158;2023-05-20T03:17:59;5.93;;;5.10;;
2211;SDS011;48849;48.758;9.158;2023-05-20T03:20:26;5.60;;;5.10;;
2211;SDS011;48849;48.758;9.158;2023-05-20T03:22:53;7.65;;;5.30;;
2211;SDS011;48849;48.758;9.158;2023-05-20T03:25:21;6.45;;;5.85;;
2211;SDS011;48849;48.758;9.158;2023-05-20T03:27:48;10.05;;;5.93;;
2211;SDS011;48849;48.758;9.158;2023-05-20T03:30:14;7.18;;;6.43;;
2211;SDS011;48849;48.758;9.158;2023-05-20T03:32:41;5.70;;;5.18;;
2211;SDS011;48849;48.758;9.158;2023-05-20T03:35:08;7.18;;;5.68;;
2211;SDS011;48849;48.758;9.158;2023-05-20T03:37:35;6.15;;;5.55;;
2211;SDS011;48849;48.758;9.158;2023-05-20T03:40:02;6.80;;;6.10;;
2211;SDS011;48849;48.758;9.158;2023-05-20T03:42:31;6.00;;;5.50;;
2211;SDS011;48849;48.758;9.158;2023-05-20T03:44:58;7.82;;;5.80;;
2211;SDS011;48849;48.758;9.158;2023-05-20T03:47:25;5.55;;;5.05;;
2211;SDS011;48849;48.758;9.158;2023-05-20T03:49:51;6.15;;;5.57;;
2211;SDS011;48849;48.758;9.158;2023-05-20T03:52:18;6.82;;;6.10;;
2211;SDS011;48849;48.758;9.158;2023-05-20T03:54:45;5.75;;;5.28;;
2211;SDS011;48849;48.758;9.158;2023-05-20T03:57:12;7.20;;;5.40;;
2211;SDS011;48849;48.758;9.158;2023-05-20T03:59:40;6.90;;;6.03;;
2211;SDS011;48849;48.758;9.158;2023-05-20T04:02:07;6.07;;;5.20;;
2211;SDS011;48849;48.758;9.158;2023-05-20T04:04:34;5.38;;;4.88;;
2211;SDS011;48849;48.758;9.158;2023-05-20T04:07:01;8.27;;;6.18;;
2211;SDS011;48849;48.758;9.158;2023-05-20T04:09:28;5.75;;;5.25;;
2211;SDS011;48849;48.758;9.158;2023-05-20T04:11:55;5.90;;;5.30;;
2211;SDS011;48849;48.758;9.158;2023-05-20T04:14:22;6.28;;;5.18;;
2211;SDS011;48849;48.758;9.158;2023-05-20T04:16:50;5.10;;;4.70;;
2211;SDS011;48849;48.758;9.158;2023-05-20T04:19:17;6.80;;;6.15;;
2211;SDS011;48849;48.758;9.158;2023-05-20T04:21:44;5.97;;;5.47;;
2211;SDS011;48849;48.758;9.158;2023-05-20T04:24:11;6.65;;;5.25;;
2211;SDS011;48849;48.758;9.158;2023-05-20T04:26:37;6.38;;;5.78;;
2211;SDS011;48849;48.758;9.158;2023-05-20T04:29:04;6.70;;;6.10;;
2211;SDS011;48849;48.758;9.158;2023-05-20T04:31:31;8.95;;;5.60;;
2211;SDS011;48849;48.758;9.158;2023-05-20T04:33:59;5.90;;;5.28;;
2211;SDS011;48849;48.758;9.158;2023-05-20T04:36:26;7.75;;;5.95;;
2211;SDS011;48849;48.758;9.158;2023-05-20T04:38:53;5.68;;;5.07;;
2211;SDS011;48849;48.758;9.158;2023-05-20T04:41:20;6.20;;;5.60;;
2211;SDS011;48849;48.758;9.158;2023-05-20T04:43:47;5.78;;;5.38;;
2211;SDS011;48849;48.758;9.158;2023-05-20T04:46:13;6.75;;;5.35;;
2211;SDS011;48849;48.758;9.158;2023-05-20T04:48:40;9.20;;;6.28;;
2211;SDS011;48849;48.758;9.158;2023-05-20T04:51:09;7.13;;;6.40;;
2211;SDS011;48849;48.758;9.158;2023-05-20T04:53:36;6.28;;;5.35;;
2211;SDS011;48849;48.758;9.158;2023-05-20T04:56:04;6.07;;;5.47;;
2211;SDS011;48849;48.758;9.158;2023-05-20T04:58:32;6.00;;;5.50;;
2211;SDS011;48849;48.758;9.158;2023-05-20T05:00:59;7.60;;;6.25;;
2211;SDS011;48849;48.758;9.158;2023-05-20T05:03:26;5.95;;;5.45;;
2211;SDS011;48849;48.758;9.158;2023-05-20T05:05:54;6.30;;;5.70;;
2211;SDS011;48849;48.758;9.158;2023-05-20T05:08:23;5.75;;;5.25;;
2211;SDS011;48849;48.758;9.158;2023-05-20T05:10:50;5.90;;;5.25;;
2211;SDS011;48849;48.758;9.158;2023-05-20T05:13:17;5.50;;;4.93;;
2211;SDS011;48849;48.758;9.158;2023-05-20T05:15:43;6.22;;;5.63;;
2211;SDS011;48849;48.758;9.158;2023-05-20T05:18:10;5.90;;;5.38;;
2211;SDS011;48849;48.758;9.158;2023-05-20T05:20:37;6.15;;;5.65;;
2211;SDS011;48849;48.758;9.158;2023-05-20T05:23:04;6.68;;;5.80;;
2211;SDS011;48849;48.758;9.158;2023-05-20T05:25:32;8.90;;;6.25;;
2211;SDS011;48849;48.758;9.158;2023-05-20T05:27:59;6.40;;;5.80;;
2211;SDS011;48849;48.758;9.158;2023-05-20T05:30:25;6.20;;;5.63;;
2211;SDS011;48849;48.758;9.158;2023-05-20T05:32:52;7.03;;;6.43;;
2211;SDS011;48849;48.758;9.158;2023-05-20T05:35:19;7.53;;;6.00;;
2211;SDS011;48849;48.758;9.158;2023-05-20T05:37:45;6.50;;;6.00;;
2211;SDS011;48849;48.758;9.158;2023-05-20T05:40:12;7.13;;;6.03;;
2211;SDS011;48849;48.758;9.158;2023-05-20T05:42:40;6.38;;;5.78;;
2211;SDS011;48849;48.758;9.158;2023-05-20T05:45:08;6.75;;;5.63;;
2211;SDS011;48849;48.758;9.158;2023-05-20T05:47:35;7.30;;;6.70;;
2211;SDS011;48849;48.758;9.158;2023-05-20T05:50:02;6.75;;;5.38;;
2211;SDS011;48849;48.758;9.158;2023-05-20T05:52:28;6.53;;;6.03;;
2211;SDS011;48849;48.758;9.158;2023-05-20T05:54:55;7.65;;;6.85;;
2211;SDS011;48849;48.758;9.158;2023-05-20T05:57:22;6.82;;;6.13;;
2211;SDS011;48849;48.758;9.158;2023-05-20T05:59:50;7.03;;;6.38;;
2211;SDS011;48849;48.758;9.158;2023-05-20T06:02:17;7.13;;;6.25;;
2211;SDS011;48849;48.758;9.158;2023-05-20T06:04:43;7.85;;;6.50;;
2211;SDS011;48849;48.758;9.158;2023-05-20T06:07:10;6.95;;;6.25;;
2211;SDS011;48849;48.758;9.158;2023-05-20T06:09:37;7.05;;;6.35;;
2211;SDS011;48849;48.758;9.158;2023-05-20T06:12:04;6.75;;;6.05;;
2211;SDS011;48849;48.758;9.158;2023-05-20T06:14:31;7.68;;;6.55;;
2211;SDS011;48849;48.758;9.158;2023-05-20T06:16:59;7.47;;;6.03;;
2211;SDS011;48849;48.758;9.158;2023-05-20T06:19:26;6.93;;;6.32;;
2211;SDS011;48849;48.758;9.158;2023-05-20T06:21:53;6.82;;;6.22;;
2211;SDS011;48849;48.758;9.158;2023-05-20T06:24:19;7.45;;;6.75;;
2211;SDS011;48849;48.758;9.158;2023-05-20T06:26:46;6.60;;;6.00;;
2211;SDS011;48849;48.758;9.158;2023-05-20T06:29:14;6.45;;;5.85;;
2211;SDS011;48849;48.758;9.158;2023-05-20T06:31:41;6.70;;;6.10;;
2211;SDS011;48849;48.758;9.158;2023-05-20T06:34:09;7.00;;;6.30;;
2211;SDS011;48849;48.758;9.158;2023-05-20T06:36:36;7.20;;;6.50;;
2211;SDS011;48849;48.758;9.158;2023-05-20T06:39:03;8.45;;;6.85;;
2211;SDS011;48849;48.758;9.158;2023-05-20T06:41:35;6.82;;;6.22;;
2211;SDS011;48849;48.758;9.158;2023-05-20T06:44:02;6.43;;;5.82;;
2211;SDS011;48849;48.758;9.158;2023-05-20T06:46:28;8.52;;;6.93;;
2211;SDS011;48849;48.758;9.158;2023-05-20T06:48:55;7.00;;;6.30;;
2211;SDS011;48849;48.758;9.158;2023-05-20T06:51:23;7.25;;;6.55;;
2211;SDS011;48849;48.758;9.158;2023-05-20T06:53:51;7.40;;;6.72;;
2211;SDS011;48849;48.758;9.158;2023-05-20T06:56:18;7.05;;;6.35;;
2211;SDS011;48849;48.758;9.158;2023-05-20T06:58:45;7.43;;;6.82;;
2211;SDS011;48849;48.758;9.158;2023-05-20T07:01:12;7.28;;;6.60;;
2211;SDS011;48849;48.758;9.158;2023-05-20T07:03:38;7.95;;;7.15;;
2211;SDS011;48849;48.758;9.158;2023-05-20T07:06:06;7.43;;;6.70;;
2211;SDS011;48849;48.758;9.158;2023-05-20T07:08:34;7.10;;;6.50;;
2211;SDS011;48849;48.758;9.158;2023-05-20T07:11:01;7.22;;;6.63;;
2211;SDS011;48849;48.758;9.158;2023-05-20T07:13:28;7.97;;;7.30;;
2211;SDS011;48849;48.758;9.158;2023-05-20T07:15:55;8.38;;;7.07;;
2211;SDS011;48849;48.758;9.158;2023-05-20T07:18:22;7.35;;;6.65;;
2211;SDS011;48849;48.758;9.158;2023-05-20T07:20:49;7.47;;;6.88;;
2211;SDS011;48849;48.758;9.158;2023-05-20T07:23:15;8.25;;;7.43;;
2211;SDS011;48849;48.758;9.158;2023-05-20T07:25:43;7.70;;;7.00;;
2211;SDS011;48849;48.758;9.158;2023-05-20T07:28:10;7.50;;;6.80;;
2211;SDS011;48849;48.758;9.158;2023-05-20T07:30:37;8.10;;;7.30;;
2211;SDS011;48849;48.758;9.158;2023-05-20T07:33:03;7.72;;;6.95;;
2211;SDS011;48849;48.758;9.158;2023-05-20T07:35:30;7.45;;;6.85;;
2211;SDS011;48849;48.758;9.158;2023-05-20T07:37:57;8.32;;;6.78;;
2211;SDS011;48849;48.758;9.158;2023-05-20T07:40:24;7.38;;;6.63;;
2211;SDS011;48849;48.758;9.158;2023-05-20T07:42:52;7.75;;;6.25;;
2211;SDS011;48849;48.758;9.158;2023-05-20T07:45:19;7.80;;;7.10;;
2211;SDS011;48849;48.758;9.158;2023-05-20T07:47:45;7.65;;;6.85;;
2211;SDS011;48849;48.758;9.158;2023-05-20T07:50:12;8.55;;;7.47;;
2211;SDS011;48849;48.758;9.158;2023-05-20T07:52:39;7.45;;;6.75;;
2211;SDS011;48849;48.758;9.158;2023-05-20T07:55:06;6.63;;;6.03;;
2211;SDS011;48849;48.758;9.158;2023-05-20T07:57:33;7.93;;;7.03;;
2211;SDS011;48849;48.758;9.158;2023-05-20T08:00:01;7.90;;;7.20;;
2211;SDS011;48849;48.758;9.158;2023-05-20T08:02:28;7.45;;;6.75;;
2211;SDS011;48849;48.758;9.158;2023-05-20T08:04:54;7.93;;;6.57;;
2211;SDS011;48849;48.758;9.158;2023-05-20T08:07:21;8.02;;;7.22;;
2211;SDS011;48849;48.758;9.158;2023-05-20T08:09:48;7.43;;;6.82;;
2211;SDS011;48849;48.758;9.158;2023-05-20T08:12:14;7.60;;;7.00;;
2211;SDS011;48849;48.758;9.158;2023-05-20T08:14:41;7.75;;;7.05;;
2211;SDS011;48849;48.758;9.158;2023-05-20T08:17:09;7.93;;;7.22;;
2211;SDS011;48849;48.758;9.158;2023-05-20T08:19:36;6.88;;;6.28;;
2211;SDS011;48849;48.758;9.158;2023-05-20T08:22:03;6.90;;;6.30;;
2211;SDS011;48849;48.758;9.158;2023-05-20T08:24:31;6.97;;;6.38;;
2211;SDS011;48849;48.758;9.158;2023-05-20T08:26:58;6.70;;;6.10;;
2211;SDS011;48849;48.758;9.158;2023-05-20T08:29:25;7.20;;;6.60;;
2211;SDS011;48849;48.758;9.158;2023-05-20T08:31:55;7.75;;;6.95;;
2211;SDS011;48849;48.758;9.158;2023-05-20T08:34:37;7.00;;;6.40;;
2211;SDS011;48849;48.758;9.158;2023-05-20T08:37:05;7.53;;;6.80;;
2211;SDS011;48849;48.758;9.158;2023-05-20T08:39:32;7.72;;;7.05;;
2211;SDS011;48849;48.758;9.158;2023-05-20T08:42:07;7.60;;;6.80;;
2211;SDS011;48849;48.758;9.158;2023-05-20T08:44:40;7.43;;;6.72;;
2211;SDS011;48849;48.758;9.158;2023-05-20T08:47:25;7.05;;;6.45;;
2211;SDS011;48849;48.758;9.158;2023-05-20T08:50:02;8.60;;;7.80;;
2211;SDS011;48849;48.758;9.158;2023-05-20T08:52:35;7.25;;;6.55;;
2211;SDS011;48849;48.758;9.158;2023-05-20T08:55:23;7.75;;;6.90;;
2211;SDS011;48849;48.758;9.158;2023-05-20T08:58:05;14.90;;;13.40;;
2211;SDS011;48849;48.758;9.158;2023-05-20T09:00:42;21.38;;;19.35;;
2211;SDS011;48849;48.758;9.158;2023-05-20T09:03:24;22.05;;;19.83;;
2211;SDS011;48849;48.758;9.158;2023-05-20T09:06:06;20.40;;;16.95;;
2211;SDS011;48849;48.758;9.158;2023-05-20T09:08:48;12.40;;;11.30;;
2211;SDS011;48849;48.758;9.158;2023-05-20T09:11:34;9.05;;;8.25;;
2211;SDS011;48849;48.758;9.158;2023-05-20T09:14:20;8.65;;;7.85;;
2211;SDS011;48849;48.758;9.158;2023-05-20T09:16:52;7.50;;;6.80;;
2211;SDS011;48849;48.758;9.158;2023-05-20T09:19:24;7.97;;;7.18;;
2211;SDS011;48849;48.758;9.158;2023-05-20T09:21:53;8.23;;;7.43;;
2211;SDS011;48849;48.758;9.158;2023-05-20T09:24:32;7.53;;;6.82;;
2211;SDS011;48849;48.758;9.158;2023-05-20T09:27:07;9.35;;;7.13;;
2211;SDS011;48849;48.758;9.158;2023-05-20T09:29:49;10.85;;;9.30;;
2211;SDS011;48849;48.758;9.158;2023-05-20T09:32:20;8.85;;;8.05;;
2211;SDS011;48849;48.758;9.158;2023-05-20T09:35:06;7.75;;;6.95;;
2211;SDS011;48849;48.758;9.158;2023-05-20T09:37:53;7.75;;;7.05;;
2211;SDS011;48849;48.758;9.158;2023-05-20T09:40:24;8.43;;;7.60;;
2211;SDS011;48849;48.758;9.158;2023-05-20T09:43:02;7.88;;;6.85;;
2211;SDS011;48849;48.758;9.158;2023-05-20T09:45:37;8.48;;;7.30;;
2211;SDS011;48849;48.758;9.158;2023-05-20T09:48:09;8.20;;;7.50;;
2211;SDS011;48849;48.758;9.158;2023-05-20T09:50:37;7.72;;;7.03;;
2211;SDS011;48849;48.758;9.158;2023-05-20T09:53:09;7.97;;;7.28;;
2211;SDS011;48849;48.758;9.158;2023-05-20T09:55:45;7.90;;;6.60;;
2211;SDS011;48849;48.758;9.158;2023-05-20T09:58:19;9.90;;;8.98;;
2211;SDS011;48849;48.758;9.158;2023-05-20T10:00:47;13.10;;;11.90;;
2211;SDS011;48849;48.758;9.158;2023-05-20T10:03:17;16.52;;;14.82;;
2211;SDS011;48849;48.758;9.158;2023-05-20T10:05:56;9.88;;;8.93;;
2211;SDS011;48849;48.758;9.158;2023-05-20T10:08:51;9.07;;;8.07;;
2211;SDS011;48849;48.758;9.158;2023-05-20T10:12:02;7.90;;;7.20;;
2211;SDS011;48849;48.758;9.158;2023-05-20T10:15:02;10.15;;;7.68;;
2211;SDS011;48849;48.758;9.158;2023-05-20T10:17:54;10.70;;;9.70;;
2211;SDS011;48849;48.758;9.158;2023-05-20T10:20:53;8.38;;;7.60;;
2211;SDS011;48849;48.758;9.158;2023-05-20T10:23:26;7.63;;;6.97;;
2211;SDS011;48849;48.758;9.158;2023-05-20T10:26:05;8.15;;;7.35;;
2211;SDS011;48849;48.758;9.158;2023-05-20T10:28:51;6.57;;;6.03;;
2211;SDS011;48849;48.758;9.158;2023-05-20T10:31:26;7.22;;;6.55;;
2211;SDS011;48849;48.758;9.158;2023-05-20T10:33:58;7.45;;;6.85;;
2211;SDS011;48849;48.758;9.158;2023-05-20T10:36:44;7.53;;;6.82;;
2211;SDS011;48849;48.758;9.158;2023-05-20T10:39:13;7.85;;;7.05;;
2211;SDS011;48849;48.758;9.158;2023-05-20T10:44:40;6.97;;;6.35;;
2211;SDS011;48849;48.758;9.158;2023-05-20T10:47:21;6.97;;;6.38;;
2211;SDS011;48849;48.758;9.158;2023-05-20T10:49:59;7.13;;;6.47;;
2211;SDS011;48849;48.758;9.158;2023-05-20T10:52:35;6.60;;;6.10;;
2211;SDS011;48849;48.758;9.158;2023-05-20T10:55:23;6.60;;;6.10;;
2211;SDS011;48849;48.758;9.158;2023-05-20T10:57:53;8.38;;;7.57;;
2211;SDS011;48849;48.758;9.158;2023-05-20T11:00:35;11.02;;;8.98;;
2211;SDS011;48849;48.758;9.158;2023-05-20T11:03:16;7.68;;;6.97;;
2211;SDS011;48849;48.758;9.158;2023-05-20T11:05:56;7.10;;;6.50;;
2211;SDS011;48849;48.758;9.158;2023-05-20T11:08:41;6.38;;;5.88;;
2211;SDS011;48849;48.758;9.158;2023-05-20T11:11:27;10.55;;;9.48;;
2211;SDS011;48849;48.758;9.158;2023-05-20T11:14:11;14.50;;;12.03;;
2211;SDS011;48849;48.758;9.158;2023-05-20T11:16:47;11.30;;;10.10;;
2211;SDS011;48849;48.758;9.158;2023-05-20T11:19:21;9.73;;;8.83;;
2211;SDS011;48849;48.758;9.158;2023-05-20T11:21:55;7.57;;;6.50;;
2211;SDS011;48849;48.758;9.158;2023-05-20T11:24:37;7.67;;;6.70;;
2211;SDS011;48849;48.758;9.158;2023-05-20T11:27:27;7.17;;;6.47;;
2211;SDS011;48849;48.758;9.158;2023-05-20T11:30:19;6.97;;;6.37;;
2211;SDS011;48849;48.758;9.158;2023-05-20T11:32:57;8.60;;;6.87;;
2211;SDS011;48849;48.758;9.158;2023-05-20T11:35:44;6.33;;;5.83;;
2211;SDS011;48849;48.758;9.158;2023-05-20T11:38:24;11.00;;;9.93;;
2211;SDS011;48849;48.758;9.158;2023-05-20T11:40:56;16.00;;;13.20;;
2211;SDS011;48849;48.758;9.158;2023-05-20T11:43:28;14.47;;;13.00;;
2211;SDS011;48849;48.758;9.158;2023-05-20T11:46:11;8.10;;;7.40;;
2211;SDS011;48849;48.758;9.158;2023-05-20T11:48:55;7.40;;;6.70;;
2211;SDS011;48849;48.758;9.158;2023-05-20T11:51:29;7.00;;;6.40;;
2211;SDS011;48849;48.758;9.158;2023-05-20T11:54:18;5.90;;;5.40;;
2211;SDS011;48849;48.758;9.158;2023-05-20T11:57:11;7.20;;;6.50;;
2211;SDS011;48849;48.758;9.158;2023-05-20T11:59:54;8.33;;;6.87;;
2211;SDS011;48849;48.758;9.158;2023-05-20T12:02:43;7.27;;;6.57;;
2211;SDS011;48849;48.758;9.158;2023-05-20T12:05:35;7.67;;;7.03;;
2211;SDS011;48849;48.758;9.158;2023-05-20T12:08:12;8.50;;;6.17;;
2211;SDS011;48849;48.758;9.158;2023-05-20T12:10:52;7.20;;;6.50;;
2211;SDS011;48849;48.758;9.158;2023-05-20T12:13:20;6.33;;;5.73;;
2211;SDS011;48849;48.758;9.158;2023-05-20T12:15:54;7.13;;;6.40;;
2211;SDS011;48849;48.758;9.158;2023-05-20T12:18:29;6.60;;;6.00;;
2211;SDS011;48849;48.758;9.158;2023-05-20T12:21:04;6.13;;;5.63;;
2211;SDS011;48849;48.758;9.158;2023-05-20T12:23:50;6.93;;;6.33;;
2211;SDS011;48849;48.758;9.158;2023-05-20T12:26:40;6.10;;;5.60;;
2211;SDS011;48849;48.758;9.158;2023-05-20T12:29:18;6.97;;;6.37;;
2211;SDS011;48849;48.758;9.158;2023-05-20T12:41:48;6.57;;;5.97;;
2211;SDS011;48849;48.758;9.158;2023-05-20T12:44:23;6.73;;;6.13;;
2211;SDS011;48849;48.758;9.158;2023-05-20T12:47:04;8.23;;;5.73;;
2211;SDS011;48849;48.758;9.158;2023-05-20T12:49:57;6.53;;;5.70;;
2211;SDS011;48849;48.758;9.158;2023-05-20T12:52:36;6.90;;;5.30;;
2211;SDS011;48849;48.758;9.158;2023-05-20T12:58:29;6.27;;;5.77;;
2211;SDS011;48849;48.758;9.158;2023-05-20T13:01:22;6.87;;;5.53;;
2211;SDS011;48849;48.758;9.158;2023-05-20T13:03:58;6.70;;;5.43;;
2211;SDS011;48849;48.758;9.158;2023-05-20T13:06:51;11.30;;;5.60;;
2211;SDS011;48849;48.758;9.158;2023-05-20T13:09:27;8.03;;;7.07;;
2211;SDS011;48849;48.758;9.158;2023-05-20T13:11:58;6.33;;;5.83;;
2211;SDS011;48849;48.758;9.158;2023-05-20T13:14:57;7.00;;;5.83;;
2211;SDS011;48849;48.758;9.158;2023-05-20T13:17:34;9.97;;;6.30;;
2211;SDS011;48849;48.758;9.158;2023-05-20T13:26:37;7.77;;;7.07;;
2211;SDS011;48849;48.758;9.158;2023-05-20T13:29:11;8.03;;;6.50;;
2211;SDS011;48849;48.758;9.158;2023-05-20T13:31:50;11.13;;;9.97;;
2211;SDS011;48849;48.758;9.158;2023-05-20T13:34:29;9.47;;;7.47;;
2211;SDS011;48849;48.758;9.158;2023-05-20T13:37:01;11.10;;;9.90;;
2211;SDS011;48849;48.758;9.158;2023-05-20T13:39:41;9.00;;;8.10;;
2211;SDS011;48849;48.758;9.158;2023-05-20T13:42:14;10.10;;;8.60;;
2211;SDS011;48849;48.758;9.158;2023-05-20T13:44:47;7.60;;;6.17;;
2211;SDS011;48849;48.758;9.158;2023-05-20T13:47:19;8.23;;;5.50;;
2211;SDS011;48849;48.758;9.158;2023-05-20T13:49:53;12.70;;;8.80;;
2211;SDS011;48849;48.758;9.158;2023-05-20T13:52:29;18.60;;;9.10;;
2211;SDS011;48849;48.758;9.158;2023-05-20T13:55:08;8.23;;;6.40;;
2211;SDS011;48849;48.758;9.158;2023-05-20T13:57:40;17.20;;;8.20;;
2211;SDS011;48849;48.758;9.158;2023-05-20T14:00:17;8.77;;;5.60;;
2211;SDS011;48849;48.758;9.158;2023-05-20T14:02:49;7.50;;;4.60;;
2211;SDS011;48849;48.758;9.158;2023-05-20T14:05:22;46.60;;;11.53;;
2211;SDS011;48849;48.758;9.158;2023-05-20T14:08:06;32.80;;;9.17;;
2211;SDS011;48849;48.758;9.158;2023-05-20T14:10:52;25.17;;;9.33;;
2211;SDS011;48849;48.758;9.158;2023-05-20T14:13:36;18.80;;;7.90;;
2211;SDS011;48849;48.758;9.158;2023-05-20T14:16:06;12.43;;;6.40;;
2211;SDS011;48849;48.758;9.158;2023-05-20T14:18:51;12.40;;;6.10;;
2211;SDS011;48849;48.758;9.158;2023-05-20T14:21:20;6.80;;;6.00;;
2211;SDS011;48849;48.758;9.158;2023-05-20T14:23:50;5.87;;;4.87;;
2211;SDS011;48849;48.758;9.158;2023-05-20T14:26:33;6.53;;;5.93;;
2211;SDS011;48849;48.758;9.158;2023-05-20T14:29:04;7.47;;;6.10;;
2211;SDS011;48849;48.758;9.158;2023-05-20T14:31:33;9.57;;;6.67;;
2211;SDS011;48849;48.758;9.158;2023-05-20T14:34:17;9.50;;;6.90;;
2211;SDS011;48849;48.758;9.158;2023-05-20T14:36:53;7.20;;;6.50;;
2211;SDS011;48849;48.758;9.158;2023-05-20T14:39:35;5.70;;;5.07;;
2211;SDS011;48849;48.758;9.158;2023-05-20T14:42:17;5.73;;;5.23;;
2211;SDS011;48849;48.758;9.158;2023-05-20T14:44:58;6.10;;;5.50;;
2211;SDS011;48849;48.758;9.158;2023-05-20T14:47:30;6.27;;;5.23;;
2211;SDS011;48849;48.758;9.158;2023-05-20T14:50:06;5.63;;;5.03;;
2211;SDS011;48849;48.758;9.158;2023-05-20T14:52:35;5.90;;;5.10;;
2211;SDS011;48849;48.758;9.158;2023-05-20T14:55:07;5.37;;;4.97;;
2211;SDS011;48849;48.758;9.158;2023-05-20T14:57:38;5.07;;;4.57;;
2211;SDS011;48849;48.758;9.158;2023-05-20T15:00:08;5.50;;;5.00;;
2211;SDS011;48849;48.758;9.158;2023-05-20T15:02:50;5.90;;;5.30;;
2211;SDS011;48849;48.758;9.158;2023-05-20T15:05:18;6.33;;;5.50;;
2211;SDS011;48849;48.758;9.158;2023-05-20T15:07:45;6.87;;;5.80;;
2211;SDS011;48849;48.758;9.158;2023-05-20T15:10:13;5.50;;;4.97;;
2211;SDS011;48849;48.758;9.158;2023-05-20T15:12:45;39.27;;;11.33;;
2211;SDS011;48849;48.758;9.158;2023-05-20T15:15:14;16.77;;;7.43;;
2211;SDS011;48849;48.758;9.158;2023-05-20T15:18:02;10.10;;;6.23;;
2211;SDS011;48849;48.758;9.158;2023-05-20T15:20:34;8.97;;;5.90;;
2211;SDS011;48849;48.758;9.158;2023-05-20T15:23:05;13.57;;;6.70;;
2211;SDS011;48849;48.758;9.158;2023-05-20T15:25:38;13.90;;;6.63;;
2211;SDS011;48849;48.758;9.158;2023-05-20T15:28:25;7.23;;;6.30;;
2211;SDS011;48849;48.758;9.158;2023-05-20T15:30:55;40.57;;;11.30;;
2211;SDS011;48849;48.758;9.158;2023-05-20T15:33:21;22.53;;;9.80;;
2211;SDS011;48849;48.758;9.158;2023-05-20T15:35:56;10.90;;;7.20;;
2211;SDS011;48849;48.758;9.158;2023-05-20T15:38:27;28.37;;;9.10;;
2211;SDS011;48849;48.758;9.158;2023-05-20T15:40:54;12.20;;;6.97;;
2211;SDS011;48849;48.758;9.158;2023-05-20T15:43:26;201.43;;;77.63;;
2211;SDS011;48849;48.758;9.158;2023-05-20T15:45:56;404.10;;;159.00;;
2211;SDS011;48849;48.758;9.158;2023-05-20T15:48:32;367.00;;;155.27;;